createdAt,value
2023-05-17T00:03:10.813Z,1.63
2023-05-17T00:08:12.597Z,1.75
2023-05-17T00:13:14.106Z,1.80
2023-05-17T00:18:15.823Z,1.77
2023-05-17T00:23:17.377Z,1.83
2023-05-17T00:28:18.907Z,2.10
2023-05-17T00:33:20.512Z,1.50
2023-05-17T00:38:22.129Z,1.75
2023-05-17T00:43:23.729Z,1.55
2023-05-17T00:48:26.395Z,1.50
2023-05-17T00:53:29.553Z,1.40
2023-05-17T00:58:31.190Z,1.42
2023-05-17T01:03:33.003Z,1.30
2023-05-17T01:08:34.759Z,1.20
2023-05-17T01:13:48.796Z,1.40
2023-05-17T01:19:02.610Z,1.40
2023-05-17T01:24:28.843Z,1.40
2023-05-17T01:29:33.055Z,1.30
2023-05-17T01:34:35.077Z,1.17
2023-05-17T01:39:37.724Z,1.40
2023-05-17T01:45:07.656Z,0.80
2023-05-17T01:50:12.716Z,1.40
2023-05-17T01:56:02.558Z,1.70
2023-05-17T02:01:05.889Z,1.65
2023-05-17T02:06:07.629Z,1.50
2023-05-17T02:11:09.367Z,0.90
2023-05-17T02:16:11.125Z,1.50
2023-05-17T02:21:13.383Z,1.50
2023-05-17T02:26:14.991Z,1.45
2023-05-17T02:31:16.544Z,1.38
2023-05-17T02:36:18.091Z,1.60
2023-05-17T02:41:20.206Z,0.85
2023-05-17T02:46:22.152Z,1.00
2023-05-17T02:51:23.721Z,1.23
2023-05-17T02:56:25.709Z,1.17
2023-05-17T03:01:28.046Z,1.27
2023-05-17T03:06:31.321Z,1.27
2023-05-17T03:11:33.579Z,1.02
2023-05-17T03:16:36.830Z,1.08
2023-05-17T03:21:40.132Z,0.88
2023-05-17T03:26:41.864Z,1.40
2023-05-17T03:31:45.376Z,1.10
2023-05-17T03:36:48.979Z,1.20
2023-05-17T03:41:51.048Z,1.30
2023-05-17T03:46:53.101Z,1.42
2023-05-17T03:51:56.315Z,1.00
2023-05-17T03:56:58.106Z,1.00
2023-05-17T04:01:59.881Z,0.90
2023-05-17T04:07:02.591Z,1.00
2023-05-17T04:12:04.528Z,1.30
2023-05-17T04:17:06.158Z,1.33
2023-05-17T04:22:07.852Z,1.40
2023-05-17T04:27:09.776Z,1.25
2023-05-17T04:32:11.347Z,1.27
2023-05-17T04:37:13.692Z,1.17
2023-05-17T04:42:15.690Z,1.52
2023-05-17T04:47:23.310Z,1.00
2023-05-17T04:52:24.949Z,1.08
2023-05-17T04:57:27.140Z,1.13
2023-05-17T05:02:38.524Z,1.17
2023-05-17T05:07:41.165Z,1.42
2023-05-17T05:12:44.900Z,1.02
2023-05-17T05:17:48.387Z,1.10
2023-05-17T05:22:50.121Z,1.10
2023-05-17T05:27:53.259Z,1.73
2023-05-17T05:32:55.028Z,1.27
2023-05-17T05:37:57.810Z,1.75
2023-05-17T05:42:59.842Z,1.73
2023-05-17T05:48:01.775Z,1.30
2023-05-17T05:53:17.277Z,1.20
2023-05-17T05:58:23.503Z,1.42
2023-05-17T06:03:26.342Z,1.65
2023-05-17T06:08:27.855Z,1.73
2023-05-17T06:13:29.392Z,2.15
2023-05-17T06:18:30.967Z,1.92
2023-05-17T06:23:32.538Z,2.03
2023-05-17T06:28:34.078Z,1.90
2023-05-17T06:33:35.795Z,2.78
2023-05-17T06:38:37.459Z,3.10
2023-05-17T06:43:39.062Z,2.55
2023-05-17T06:48:40.751Z,2.50
2023-05-17T06:53:42.412Z,2.20
2023-05-17T06:58:43.944Z,2.28
2023-05-17T07:03:45.705Z,2.40
2023-05-17T07:08:47.291Z,3.22
2023-05-17T07:13:50.665Z,3.08
2023-05-17T07:18:53.148Z,2.67
2023-05-17T07:23:54.726Z,3.03
2023-05-17T07:28:56.240Z,3.17
2023-05-17T07:33:57.982Z,2.92
2023-05-17T07:38:59.685Z,2.55
2023-05-17T07:44:01.370Z,2.75
2023-05-17T07:49:03.098Z,2.78
2023-05-17T07:54:04.823Z,2.92
2023-05-17T07:59:06.865Z,2.58
2023-05-17T08:04:08.434Z,2.90
2023-05-17T08:09:11.050Z,2.40
2023-05-17T08:14:16.767Z,2.63
2023-05-17T08:19:19.377Z,3.45
2023-05-17T08:24:21.121Z,2.70
2023-05-17T08:29:22.652Z,2.90
2023-05-17T08:34:24.499Z,3.22
2023-05-17T08:39:26.160Z,3.17
2023-05-17T08:44:28.576Z,3.50
2023-05-17T08:49:33.458Z,3.20
2023-05-17T08:54:35.717Z,2.80
2023-05-17T08:59:39.055Z,3.20
2023-05-17T09:04:41.084Z,2.95
2023-05-17T09:09:42.814Z,3.42
2023-05-17T09:14:44.541Z,3.17
2023-05-17T09:19:47.901Z,3.10
2023-05-17T09:24:49.984Z,3.10
2023-05-17T09:29:54.524Z,2.90
2023-05-17T09:34:59.328Z,3.00
2023-05-17T09:40:01.181Z,3.50
2023-05-17T09:45:03.078Z,3.53
2023-05-17T09:50:05.474Z,3.20
2023-05-17T09:55:07.356Z,3.22
2023-05-17T10:00:12.002Z,3.17
2023-05-17T10:05:15.768Z,3.03
2023-05-17T10:10:18.149Z,3.33
2023-05-17T10:15:20.894Z,3.70
2023-05-17T10:20:22.545Z,3.67
2023-05-17T10:25:24.339Z,3.55
2023-05-17T10:30:28.555Z,3.10
2023-05-17T10:35:30.656Z,2.80
2023-05-17T10:40:32.906Z,2.67
2023-05-17T10:45:37.016Z,3.50
2023-05-17T10:50:45.039Z,3.00
2023-05-17T10:55:55.768Z,2.97
2023-05-17T11:00:57.299Z,3.35
2023-05-17T11:06:22.010Z,3.30
2023-05-17T11:11:25.190Z,3.83
2023-05-17T11:16:34.295Z,3.75
2023-05-17T11:21:36.090Z,3.60
2023-05-17T11:26:38.011Z,3.28
2023-05-17T11:31:44.338Z,3.67
2023-05-17T11:36:51.747Z,3.22
2023-05-17T11:41:57.304Z,3.60
2023-05-17T11:47:07.073Z,3.40
2023-05-17T11:52:09.001Z,3.38
2023-05-17T11:57:12.768Z,3.40
2023-05-17T12:02:31.266Z,2.97
2023-05-17T12:07:34.454Z,3.72
2023-05-17T12:12:36.029Z,2.83
2023-05-17T12:17:44.484Z,3.10
2023-05-17T12:28:22.551Z,2.40
2023-05-17T12:33:26.028Z,2.67
2023-05-17T12:38:28.477Z,2.58
2023-05-17T12:43:32.505Z,2.80
2023-05-17T12:48:36.209Z,2.50
2023-05-17T12:53:42.466Z,2.55
2023-05-17T12:58:44.613Z,2.95
2023-05-17T13:03:51.343Z,2.95
2023-05-17T13:09:00.123Z,3.08
2023-05-17T13:14:01.734Z,2.70
2023-05-17T13:19:12.139Z,2.63
2023-05-17T13:24:14.106Z,2.40
2023-05-17T13:29:16.357Z,2.40
2023-05-17T13:34:21.076Z,2.38
2023-05-17T13:39:22.996Z,2.92
2023-05-17T13:44:24.940Z,2.85
2023-05-17T13:49:28.205Z,3.20
2023-05-17T13:54:29.724Z,3.03
2023-05-17T13:59:31.312Z,2.22
2023-05-17T14:04:33.286Z,2.50
2023-05-17T14:09:36.660Z,3.10
2023-05-17T14:14:38.216Z,2.53
2023-05-17T14:19:39.871Z,2.33
2023-05-17T14:24:41.570Z,2.40
2023-05-17T14:29:43.130Z,2.65
2023-05-17T14:34:44.916Z,2.58
2023-05-17T14:39:55.191Z,2.65
2023-05-17T14:45:08.994Z,2.40
2023-05-17T14:50:10.987Z,2.40
2023-05-17T14:55:12.510Z,2.53
2023-05-17T15:00:14.323Z,2.47
2023-05-17T15:05:16.322Z,2.45
2023-05-17T15:10:18.068Z,2.63
2023-05-17T15:15:22.144Z,2.72
2023-05-17T15:20:23.830Z,2.40
2023-05-17T15:25:25.323Z,2.40
2023-05-17T15:30:29.702Z,2.78
2023-05-17T15:35:31.455Z,2.40
2023-05-17T15:40:34.222Z,2.40
2023-05-17T15:45:35.782Z,1.95
2023-05-17T15:50:37.360Z,2.45
2023-05-17T15:55:38.876Z,2.65
2023-05-17T16:00:40.400Z,2.50
2023-05-17T16:05:42.612Z,2.58
2023-05-17T16:10:44.555Z,2.35
2023-05-17T16:15:46.121Z,2.60
2023-05-17T16:20:47.653Z,2.72
2023-05-17T16:25:49.155Z,2.40
2023-05-17T16:30:51.663Z,3.15
2023-05-17T16:35:53.256Z,3.00
2023-05-17T16:40:55.025Z,2.42
2023-05-17T16:45:56.550Z,2.65
2023-05-17T16:50:59.412Z,2.60
2023-05-17T16:56:01.420Z,2.28
2023-05-17T17:01:03.226Z,2.88
2023-05-17T17:06:04.913Z,2.40
2023-05-17T17:11:06.415Z,3.03
2023-05-17T17:16:07.972Z,2.25
2023-05-17T17:21:10.234Z,2.67
2023-05-17T17:26:11.970Z,3.00
2023-05-17T17:31:13.788Z,2.88
2023-05-17T17:36:15.713Z,2.67
2023-05-17T17:41:17.299Z,2.60
2023-05-17T17:46:18.964Z,2.92
2023-05-17T17:51:20.606Z,2.72
2023-05-17T17:56:23.992Z,2.33
2023-05-17T18:01:30.967Z,2.55
2023-05-17T18:06:33.988Z,2.40
2023-05-17T18:11:35.648Z,3.22
2023-05-17T18:16:37.756Z,2.70
2023-05-17T18:21:39.454Z,2.65
2023-05-17T18:26:41.032Z,2.47
2023-05-17T18:31:42.696Z,2.65
2023-05-17T18:36:44.333Z,2.97
2023-05-17T18:41:45.945Z,2.97
2023-05-17T18:46:48.701Z,2.90
2023-05-17T18:51:50.405Z,2.63
2023-05-17T18:56:52.038Z,3.13
2023-05-17T19:01:54.086Z,2.90
2023-05-17T19:06:55.693Z,2.92
2023-05-17T19:11:57.424Z,2.70
2023-05-17T19:16:59.690Z,3.55
2023-05-17T19:22:02.214Z,3.40
2023-05-17T19:27:04.750Z,3.20
2023-05-17T19:32:06.501Z,3.25
2023-05-17T19:37:08.290Z,2.67
2023-05-17T19:42:10.109Z,2.65
2023-05-17T19:47:11.668Z,2.80
2023-05-17T19:52:13.341Z,2.75
2023-05-17T19:57:14.893Z,3.05
2023-05-17T20:02:16.672Z,3.38
2023-05-17T20:07:18.559Z,2.97
2023-05-17T20:12:20.424Z,2.90
2023-05-17T20:17:22.050Z,3.05
2023-05-17T20:22:23.781Z,3.10
2023-05-17T20:27:26.293Z,3.40
2023-05-17T20:32:28.112Z,2.53
2023-05-17T20:37:29.742Z,3.03
2023-05-17T20:42:32.596Z,3.25
2023-05-17T20:47:34.237Z,3.20
2023-05-17T20:52:39.579Z,2.90
2023-05-17T20:57:42.012Z,3.17
2023-05-17T21:02:43.767Z,2.47
2023-05-17T21:07:46.694Z,2.92
2023-05-17T21:12:48.446Z,2.65
2023-05-17T21:17:50.186Z,2.58
2023-05-17T21:22:51.821Z,2.65
2023-05-17T21:27:53.349Z,2.40
2023-05-17T21:32:55.099Z,2.72
2023-05-17T21:37:56.757Z,2.88
2023-05-17T21:42:58.354Z,2.22
2023-05-17T21:48:00.125Z,2.70
2023-05-17T21:53:01.765Z,2.63
2023-05-17T21:58:03.377Z,2.13
2023-05-17T22:03:05.061Z,2.67
2023-05-17T22:08:06.761Z,2.53
2023-05-17T22:13:12.068Z,2.47
2023-05-17T22:18:13.914Z,2.13
2023-05-17T22:23:16.148Z,2.42
2023-05-17T22:28:17.736Z,2.70
2023-05-17T22:33:22.125Z,2.10
2023-05-17T22:38:23.763Z,2.60
2023-05-17T22:43:25.991Z,2.08
2023-05-17T22:48:30.295Z,2.30
2023-05-17T22:53:31.934Z,2.38
2023-05-17T22:58:33.607Z,2.17
2023-05-17T23:03:35.174Z,2.65
2023-05-17T23:08:36.745Z,2.63
2023-05-17T23:13:38.408Z,2.92
2023-05-17T23:18:40.767Z,2.50
2023-05-17T23:23:42.312Z,2.70
2023-05-17T23:28:44.075Z,2.63
2023-05-17T23:33:45.646Z,2.20
2023-05-17T23:38:47.623Z,2.10
2023-05-17T23:43:49.183Z,2.50
2023-05-17T23:48:51.410Z,2.38
2023-05-17T23:53:52.959Z,2.65
2023-05-17T23:58:54.596Z,2.08
